createdAt,value
2023-01-09T00:02:36.991Z,94011.00
2023-01-09T00:06:43.275Z,94020.00
2023-01-09T00:10:46.232Z,94018.00
2023-01-09T00:14:49.219Z,94023.00
2023-01-09T00:18:53.624Z,94035.00
2023-01-09T00:22:56.564Z,94022.00
2023-01-09T00:26:59.519Z,94020.00
2023-01-09T00:31:04.124Z,94023.00
2023-01-09T00:35:11.022Z,94020.00
2023-01-09T00:39:13.904Z,94014.00
2023-01-09T00:43:17.475Z,94018.00
2023-01-09T00:47:24.144Z,94009.00
2023-01-09T00:51:28.875Z,94007.00
2023-01-09T00:55:31.928Z,94012.00
2023-01-09T00:59:34.874Z,94017.00
2023-01-09T01:03:37.756Z,94006.00
2023-01-09T01:07:42.733Z,94013.00
2023-01-09T01:11:45.663Z,94007.00
2023-01-09T01:15:48.728Z,93983.00
2023-01-09T01:19:51.733Z,93991.00
2023-01-09T01:23:56.014Z,94002.00
2023-01-09T01:27:58.972Z,93988.00
2023-01-09T01:32:01.912Z,93997.00
2023-01-09T01:36:07.413Z,93999.00
2023-01-09T01:40:13.256Z,93994.00
2023-01-09T01:44:53.320Z,93997.00
2023-01-09T01:49:02.145Z,93991.00
2023-01-09T01:53:13.805Z,94001.00
2023-01-09T01:57:18.115Z,93969.00
2023-01-09T02:01:21.987Z,93987.00
2023-01-09T02:05:24.980Z,93995.00
2023-01-09T02:09:28.071Z,93976.00
2023-01-09T02:13:33.766Z,93987.00
2023-01-09T02:18:02.526Z,93982.00
2023-01-09T02:22:13.487Z,93986.00
2023-01-09T02:26:55.533Z,93980.00
2023-01-09T02:31:04.874Z,93995.00
2023-01-09T02:35:17.706Z,93993.00
2023-01-09T02:39:30.223Z,93977.00
2023-01-09T02:43:33.617Z,93954.00
2023-01-09T02:47:41.098Z,93959.00
2023-01-09T02:51:52.932Z,93984.00
2023-01-09T02:56:06.852Z,93980.00
2023-01-09T03:00:18.220Z,93973.00
2023-01-09T03:04:31.535Z,93974.00
2023-01-09T03:08:39.103Z,93972.00
2023-01-09T03:12:44.018Z,93975.00
2023-01-09T03:16:49.826Z,93972.00
2023-01-09T03:20:56.089Z,93969.00
2023-01-09T03:24:58.910Z,93968.00
2023-01-09T03:29:02.213Z,93968.00
2023-01-09T03:33:05.323Z,93979.00
2023-01-09T03:37:09.616Z,93978.00
2023-01-09T03:41:12.479Z,93982.00
2023-01-09T03:45:15.603Z,93976.00
2023-01-09T03:49:19.147Z,93981.00
2023-01-09T03:53:25.117Z,93976.00
2023-01-09T03:57:27.958Z,93983.00
2023-01-09T04:01:30.868Z,93976.00
2023-01-09T04:05:33.987Z,93982.00
2023-01-09T04:09:38.487Z,94001.00
2023-01-09T04:13:41.368Z,94005.00
2023-01-09T04:17:44.284Z,94006.00
2023-01-09T04:21:47.056Z,94025.00
2023-01-09T04:25:51.274Z,94032.00
2023-01-09T04:29:55.091Z,94037.00
2023-01-09T04:33:57.903Z,94051.00
2023-01-09T04:38:01.270Z,94062.00
2023-01-09T04:42:05.568Z,94074.00
2023-01-09T04:46:08.458Z,94080.00
2023-01-09T04:50:12.630Z,94084.00
2023-01-09T04:54:15.578Z,94091.00
2023-01-09T04:58:19.851Z,94091.00
2023-01-09T05:02:22.723Z,94094.00
2023-01-09T05:06:25.679Z,94109.00
2023-01-09T05:10:28.914Z,94114.00
2023-01-09T05:14:33.289Z,94123.00
2023-01-09T05:18:36.334Z,94149.00
2023-01-09T05:22:39.092Z,94155.00
2023-01-09T05:26:41.901Z,94164.00
2023-01-09T05:30:46.191Z,94163.00
2023-01-09T05:34:49.051Z,94172.00
2023-01-09T05:38:51.851Z,94176.00
2023-01-09T05:42:54.691Z,94180.00
2023-01-09T05:46:59.486Z,94161.00
2023-01-09T05:51:03.348Z,94189.00
2023-01-09T05:55:07.484Z,94201.00
2023-01-09T05:59:10.495Z,94177.00
2023-01-09T06:03:14.784Z,94185.00
2023-01-09T06:07:21.007Z,94171.00
2023-01-09T06:11:24.674Z,94197.00
2023-01-09T06:15:27.601Z,94218.00
2023-01-09T06:19:31.777Z,94222.00
2023-01-09T06:23:34.671Z,94222.00
2023-01-09T06:27:37.556Z,94247.00
2023-01-09T06:31:40.391Z,94247.00
2023-01-09T06:35:44.940Z,94267.00
2023-01-09T06:39:48.133Z,94282.00
2023-01-09T06:43:50.995Z,94283.00
2023-01-09T06:47:53.830Z,94278.00
2023-01-09T06:51:58.286Z,94293.00
2023-01-09T06:56:02.258Z,94295.00
2023-01-09T07:00:06.233Z,94301.00
2023-01-09T07:04:10.238Z,94318.00
2023-01-09T07:08:15.366Z,94323.00
2023-01-09T07:12:18.251Z,94308.00
2023-01-09T07:16:21.217Z,94336.00
2023-01-09T07:20:24.227Z,94327.00
2023-01-09T07:24:28.438Z,94333.00
2023-01-09T07:28:31.341Z,94354.00
2023-01-09T07:32:34.638Z,94356.00
2023-01-09T07:36:37.513Z,94383.00
2023-01-09T07:40:41.800Z,94378.00
2023-01-09T07:44:44.751Z,94393.00
2023-01-09T07:48:48.967Z,94403.00
2023-01-09T07:52:51.804Z,94409.00
2023-01-09T07:56:56.108Z,94403.00
2023-01-09T08:00:59.047Z,94402.00
2023-01-09T08:05:01.901Z,94411.00
2023-01-09T08:09:04.900Z,94419.00
2023-01-09T08:13:09.078Z,94432.00
2023-01-09T08:17:11.984Z,94423.00
2023-01-09T08:21:17.622Z,94422.00
2023-01-09T08:25:20.757Z,94423.00
2023-01-09T08:29:25.018Z,94445.00
2023-01-09T08:33:28.019Z,94449.00
2023-01-09T08:37:30.867Z,94445.00
2023-01-09T08:41:51.160Z,94453.00
2023-01-09T08:46:15.242Z,94456.00
2023-01-09T08:50:18.032Z,94465.00
2023-01-09T08:54:20.921Z,94468.00
2023-01-09T08:58:23.813Z,94460.00
2023-01-09T09:02:28.045Z,94483.00
2023-01-09T09:06:30.963Z,94483.00
2023-01-09T09:10:33.893Z,94474.00
2023-01-09T09:14:54.057Z,94469.00
2023-01-09T09:18:58.187Z,94473.00
2023-01-09T09:23:01.149Z,94475.00
2023-01-09T09:27:04.715Z,94488.00
2023-01-09T09:31:08.194Z,94497.00
2023-01-09T09:35:12.841Z,94488.00
2023-01-09T09:39:15.734Z,94497.00
2023-01-09T09:43:59.785Z,94487.00
2023-01-09T09:48:14.270Z,94501.00
2023-01-09T09:52:28.806Z,94474.00
2023-01-09T09:56:35.209Z,94490.00
2023-01-09T10:00:37.989Z,94466.00
2023-01-09T10:04:47.604Z,94478.00
2023-01-09T10:08:57.258Z,94478.00
2023-01-09T10:13:21.265Z,94475.00
2023-01-09T10:17:37.356Z,94472.00
2023-01-09T10:21:48.936Z,94475.00
2023-01-09T10:25:57.769Z,94478.00
2023-01-09T10:30:12.551Z,94474.00
2023-01-09T10:34:31.235Z,94474.00
2023-01-09T10:38:37.988Z,94458.00
2023-01-09T10:42:47.438Z,94465.00
2023-01-09T10:46:54.403Z,94460.00
2023-01-09T10:50:57.809Z,94466.00
2023-01-09T10:55:06.099Z,94464.00
2023-01-09T10:59:11.298Z,94453.00
2023-01-09T11:03:15.277Z,94456.00
2023-01-09T11:07:21.741Z,94467.00
2023-01-09T11:11:35.571Z,94455.00
2023-01-09T11:15:39.778Z,94455.00
2023-01-09T11:20:02.476Z,94454.00
2023-01-09T11:24:27.813Z,94457.00
2023-01-09T11:28:31.149Z,94460.00
2023-01-09T11:32:36.139Z,94456.00
2023-01-09T11:36:39.160Z,94460.00
2023-01-09T11:40:49.345Z,94439.00
2023-01-09T11:44:59.175Z,94457.00
2023-01-09T11:49:06.341Z,94461.00
2023-01-09T11:53:16.042Z,94459.00
2023-01-09T11:57:19.311Z,94457.00
2023-01-09T12:02:01.086Z,94452.00
2023-01-09T12:06:17.040Z,94450.00
2023-01-09T12:10:41.329Z,94447.00
2023-01-09T12:14:54.546Z,94454.00
2023-01-09T12:19:13.787Z,94462.00
2023-01-09T12:23:39.044Z,94473.00
2023-01-09T12:27:58.675Z,94462.00
2023-01-09T12:32:26.701Z,94472.00
2023-01-09T12:36:38.682Z,94475.00
2023-01-09T12:40:55.097Z,94482.00
2023-01-09T12:45:02.023Z,94481.00
2023-01-09T12:49:21.565Z,94476.00
2023-01-09T12:53:27.031Z,94481.00
2023-01-09T12:57:35.951Z,94476.00
2023-01-09T13:01:43.448Z,94476.00
2023-01-09T13:05:50.099Z,94481.00
2023-01-09T13:09:57.607Z,94486.00
2023-01-09T13:14:06.552Z,94477.00
2023-01-09T13:18:17.637Z,94489.00
2023-01-09T13:22:21.222Z,94477.00
2023-01-09T13:26:26.904Z,94467.00
2023-01-09T13:30:46.221Z,94470.00
2023-01-09T13:34:52.799Z,94472.00
2023-01-09T13:38:57.131Z,94465.00
2023-01-09T13:43:03.994Z,94472.00
2023-01-09T13:47:17.664Z,94469.00
2023-01-09T13:52:01.083Z,94471.00
2023-01-09T13:56:07.865Z,94467.00
2023-01-09T14:00:48.030Z,94459.00
2023-01-09T14:04:52.428Z,94471.00
2023-01-09T14:09:16.495Z,94456.00
2023-01-09T14:13:22.812Z,94454.00
2023-01-09T14:17:28.481Z,94467.00
2023-01-09T14:21:46.700Z,94464.00
2023-01-09T14:25:50.799Z,94472.00
2023-01-09T14:30:33.196Z,94476.00
2023-01-09T14:34:38.256Z,94487.00
2023-01-09T14:38:45.496Z,94490.00
2023-01-09T14:42:51.604Z,94502.00
2023-01-09T14:46:56.042Z,94508.00
2023-01-09T14:51:00.060Z,94507.00
2023-01-09T14:55:08.692Z,94502.00
2023-01-09T14:59:13.552Z,94512.00
2023-01-09T15:03:17.275Z,94512.00
2023-01-09T15:07:22.845Z,94516.00
2023-01-09T15:11:28.772Z,94510.00
2023-01-09T15:15:31.802Z,94513.00
2023-01-09T15:19:34.756Z,94518.00
2023-01-09T15:23:37.630Z,94511.00
2023-01-09T15:27:49.709Z,94526.00
2023-01-09T15:31:55.535Z,94534.00
2023-01-09T15:36:02.566Z,94532.00
2023-01-09T15:40:09.054Z,94542.00
2023-01-09T15:44:18.918Z,94536.00
2023-01-09T15:48:26.748Z,94556.00
2023-01-09T15:52:29.660Z,94563.00
2023-01-09T15:56:33.440Z,94565.00
2023-01-09T16:00:41.843Z,94560.00
2023-01-09T16:04:44.847Z,94570.00
2023-01-09T16:08:52.248Z,94566.00
2023-01-09T16:12:55.333Z,94567.00
2023-01-09T16:17:04.286Z,94570.00
2023-01-09T16:21:25.258Z,94584.00
2023-01-09T16:25:31.562Z,94598.00
2023-01-09T16:29:36.415Z,94588.00
2023-01-09T16:33:46.548Z,94596.00
2023-01-09T16:37:49.762Z,94595.00
2023-01-09T16:42:10.656Z,94606.00
2023-01-09T16:46:13.867Z,94606.00
2023-01-09T16:50:18.253Z,94595.00
2023-01-09T16:54:21.578Z,94604.00
2023-01-09T16:58:27.856Z,94604.00
2023-01-09T17:02:30.536Z,94609.00
2023-01-09T17:06:34.694Z,94619.00
2023-01-09T17:10:37.570Z,94636.00
2023-01-09T17:14:40.428Z,94638.00
2023-01-09T17:18:43.629Z,94646.00
2023-01-09T17:22:47.783Z,94660.00
2023-01-09T17:27:05.846Z,94665.00
2023-01-09T17:31:12.131Z,94669.00
2023-01-09T17:35:15.421Z,94670.00
2023-01-09T17:39:19.533Z,94672.00
2023-01-09T17:43:23.109Z,94681.00
2023-01-09T17:47:25.923Z,94697.00
2023-01-09T17:51:29.289Z,94699.00
2023-01-09T17:55:34.772Z,94703.00
2023-01-09T17:59:37.675Z,94705.00
2023-01-09T18:03:40.587Z,94713.00
2023-01-09T18:07:43.459Z,94722.00
2023-01-09T18:11:48.245Z,94726.00
2023-01-09T18:15:57.126Z,94724.00
2023-01-09T18:19:59.942Z,94734.00
2023-01-09T18:24:03.172Z,94728.00
2023-01-09T18:28:07.678Z,94730.00
2023-01-09T18:32:10.641Z,94733.00
2023-01-09T18:36:13.779Z,94749.00
2023-01-09T18:40:16.989Z,94754.00
2023-01-09T18:44:22.031Z,94753.00
2023-01-09T18:48:25.066Z,94771.00
2023-01-09T18:52:27.873Z,94764.00
2023-01-09T18:56:31.269Z,94775.00
2023-01-09T19:00:35.523Z,94795.00
2023-01-09T19:04:38.313Z,94802.00
2023-01-09T19:08:41.213Z,94797.00
2023-01-09T19:12:44.115Z,94785.00
2023-01-09T19:16:48.604Z,94806.00
2023-01-09T19:20:52.769Z,94834.00
2023-01-09T19:24:55.789Z,94814.00
2023-01-09T19:28:58.663Z,94834.00
2023-01-09T19:33:02.874Z,94827.00
2023-01-09T19:37:07.659Z,94820.00
2023-01-09T19:41:14.321Z,94831.00
2023-01-09T19:45:17.341Z,94837.00
2023-01-09T19:49:21.604Z,94839.00
2023-01-09T19:53:26.473Z,94853.00
2023-01-09T19:57:29.545Z,94854.00
2023-01-09T20:01:34.689Z,94864.00
2023-01-09T20:05:38.927Z,94878.00
2023-01-09T20:09:41.784Z,94866.00
2023-01-09T20:13:45.096Z,94874.00
2023-01-09T20:17:47.949Z,94881.00
2023-01-09T20:21:52.243Z,94884.00
2023-01-09T20:25:56.962Z,94892.00
2023-01-09T20:30:00.765Z,94905.00
2023-01-09T20:34:04.368Z,94903.00
2023-01-09T20:38:08.738Z,94903.00
2023-01-09T20:42:14.324Z,94913.00
2023-01-09T20:46:17.603Z,94916.00
2023-01-09T20:50:20.472Z,94910.00
2023-01-09T20:54:25.102Z,94929.00
2023-01-09T20:58:28.792Z,94923.00
2023-01-09T21:02:31.772Z,94940.00
2023-01-09T21:06:34.746Z,94933.00
2023-01-09T21:10:39.036Z,94940.00
2023-01-09T21:14:41.872Z,94945.00
2023-01-09T21:18:45.046Z,94955.00
2023-01-09T21:22:48.191Z,94957.00
2023-01-09T21:26:52.383Z,94958.00
2023-01-09T21:30:55.267Z,94959.00
2023-01-09T21:35:03.130Z,94967.00
2023-01-09T21:39:08.332Z,94971.00
2023-01-09T21:43:38.618Z,94980.00
2023-01-09T21:47:41.470Z,94985.00
2023-01-09T21:51:44.736Z,94996.00
2023-01-09T21:55:47.498Z,95005.00
2023-01-09T21:59:51.686Z,95000.00
2023-01-09T22:03:54.811Z,95013.00
2023-01-09T22:07:57.724Z,95002.00
2023-01-09T22:12:00.726Z,95018.00
2023-01-09T22:16:06.965Z,95007.00
2023-01-09T22:20:10.930Z,95018.00
2023-01-09T22:24:14.347Z,95026.00
2023-01-09T22:28:17.721Z,95046.00
2023-01-09T22:32:22.546Z,95048.00
2023-01-09T22:36:26.227Z,95051.00
2023-01-09T22:40:29.130Z,95057.00
2023-01-09T22:44:31.977Z,95056.00
2023-01-09T22:48:36.266Z,95053.00
2023-01-09T22:52:39.335Z,95061.00
2023-01-09T22:56:42.169Z,95058.00
2023-01-09T23:00:45.266Z,95066.00
2023-01-09T23:04:49.468Z,95062.00
2023-01-09T23:08:53.779Z,95081.00
2023-01-09T23:12:56.611Z,95084.00
2023-01-09T23:16:59.495Z,95088.00
2023-01-09T23:21:05.742Z,95079.00
2023-01-09T23:25:09.760Z,95095.00
2023-01-09T23:29:13.507Z,95101.00
2023-01-09T23:33:17.536Z,95108.00
2023-01-09T23:37:21.826Z,95100.00
2023-01-09T23:41:44.971Z,95099.00
2023-01-09T23:45:49.845Z,95102.00
2023-01-09T23:49:52.807Z,95109.00
2023-01-09T23:53:56.992Z,95117.00
2023-01-09T23:57:59.929Z,95114.00
